Terminal Aerodrome Forecast
Issued by NWS

Home | Current Version | Previous Version | Text Only | Print | Product List | Glossary On
Versions: 1 2 3 4 5 6 7 8 9 10 11
092
FTUS44 KSJT 281725
TAFBBD
TAF
KBBD 281725Z 2818/2918 20008KT P6SM SCT250
     FM282100 15011KT P6SM BKN250
     FM290800 14011G18KT P6SM BKN015
     FM291700 20011KT P6SM SCT250
      AMD NOT SKED=

USA.gov is the U.S. government's official web portal to all federal, state and local government web resources and services.